Time;durP1;ratioP1;P1;durP2;ratioP2;P2;SDS_P1;SDS_P2;PMS_P1;PMS_P2;Temp;Humidity;BMP_temperature;BMP_pressure;BME280_temperature;BME280_humidity;BME280_pressure;Samples;Min_cycle;Max_cycle;Signal;HPM_P1;HPM_P2
2022/08/05 00:01:25;;;;;;;5.80;2.67;;;;;;;24.31;51.22;99696.44;5110374;28;20056;-62
2022/08/05 00:03:54;;;;;;;9.52;3.05;;;;;;;24.25;51.83;99681.00;5111426;28;20488;-62
2022/08/05 00:06:23;;;;;;;5.18;2.85;;;;;;;24.18;51.61;99667.44;5111725;28;20056;-62
2022/08/05 00:08:59;;;;;;;5.07;2.72;;;;;;;24.10;51.88;99634.38;5110109;28;20105;-62
2022/08/05 00:11:27;;;;;;;4.53;2.70;;;;;;;24.01;52.07;99609.38;5109914;28;20054;-63
2022/08/05 00:14:01;;;;;;;5.65;2.90;;;;;;;23.91;52.32;99596.19;5109960;28;20055;-63
2022/08/05 00:16:39;;;;;;;7.07;3.17;;;;;;;23.83;52.52;99591.72;5111170;28;20048;-62
2022/08/05 00:19:20;;;;;;;8.38;3.33;;;;;;;23.76;52.99;99607.72;5111110;28;20044;-64
2022/08/05 00:21:48;;;;;;;4.88;3.20;;;;;;;23.68;53.30;99624.72;5111271;28;20043;-63
2022/08/05 00:24:15;;;;;;;6.25;3.25;;;;;;;23.64;53.33;99619.88;5109851;28;20052;-64
2022/08/05 00:26:49;;;;;;;5.35;3.38;;;;;;;23.60;53.73;99624.78;5111023;28;20047;-63
2022/08/05 00:29:19;;;;;;;5.07;3.30;;;;;;;23.57;53.81;99635.88;5111050;28;20101;-64
2022/08/05 00:31:51;;;;;;;6.25;3.17;;;;;;;23.53;53.62;99646.13;5111373;28;20047;-63
2022/08/05 00:34:44;;;;;;;9.30;3.47;;;;;;;23.49;54.58;99662.78;5111107;28;20047;-64
2022/08/05 00:37:31;;;;;;;4.60;3.08;;;;;;;23.47;53.95;99662.94;5110323;28;20125;-62
2022/08/05 00:40:19;;;;;;;5.25;3.28;;;;;;;23.44;54.10;99663.31;5109879;28;20051;-62
2022/08/05 00:42:57;;;;;;;6.35;3.05;;;;;;;23.39;54.19;99638.78;5110006;28;20054;-63
2022/08/05 00:45:24;;;;;;;6.22;3.40;;;;;;;23.37;54.70;99628.25;5109850;28;20121;-63
2022/08/05 00:48:08;;;;;;;7.30;3.60;;;;;;;23.35;54.56;99611.47;5111102;28;20048;-65
2022/08/05 00:50:36;;;;;;;8.38;3.97;;;;;;;23.34;54.86;99606.25;5109799;28;20366;-62
2022/08/05 00:53:03;;;;;;;6.10;3.40;;;;;;;23.29;54.62;99596.84;5111117;28;20040;-62
2022/08/05 00:55:50;;;;;;;6.88;3.55;;;;;;;23.27;54.43;99609.63;5111280;28;20637;-65
2022/08/05 00:58:17;;;;;;;8.25;3.45;;;;;;;23.23;54.51;99612.81;5114246;28;20134;-62
2022/08/05 01:00:46;;;;;;;7.47;3.92;;;;;;;23.18;54.90;99610.69;5114632;27;20058;-62
2022/08/05 01:03:15;;;;;;;6.00;3.47;;;;;;;23.13;55.13;99623.75;5114698;28;20048;-62
2022/08/05 01:05:48;;;;;;;;;;;;;;;23.07;53.72;99619.09;5115071;28;20108;-62
2022/08/05 01:08:17;;;;;;;5.80;3.38;;;;;;;23.09;54.57;99634.00;5114253;28;19931;-62
2022/08/05 01:11:10;;;;;;;6.95;3.72;;;;;;;23.01;55.16;99624.16;5113307;28;20046;-62
2022/08/05 01:13:46;;;;;;;5.82;3.08;;;;;;;22.96;55.86;99639.94;5114479;28;20130;-63
2022/08/05 01:16:50;;;;;;;8.65;4.20;;;;;;;22.88;55.80;99662.25;5113131;28;20043;-62
2022/08/05 01:19:20;;;;;;;4.72;3.70;;;;;;;22.87;55.41;99668.63;5114161;28;20960;-61
2022/08/05 01:22:16;;;;;;;7.55;3.95;;;;;;;22.79;55.93;99676.69;5114325;28;20047;-61
2022/08/05 01:24:49;;;;;;;7.70;3.58;;;;;;;22.77;55.14;99684.91;5112937;28;20048;-61
2022/08/05 01:27:45;;;;;;;5.18;3.85;;;;;;;22.68;56.20;99698.50;5114178;28;20051;-62
2022/08/05 01:30:22;;;;;;;6.18;4.50;;;;;;;22.64;55.59;99689.94;5113802;28;20040;-63
2022/08/05 01:33:04;;;;;;;6.53;4.00;;;;;;;22.57;56.10;99697.84;5112937;28;20056;-62
2022/08/05 01:35:34;;;;;;;;;;;;;;;22.51;54.89;99693.94;5114253;28;20499;-62
2022/08/05 01:38:20;;;;;;;9.10;3.97;;;;;;;22.54;55.66;99695.44;5113907;28;20359;-62
2022/08/05 01:40:59;;;;;;;6.50;4.22;;;;;;;22.50;56.74;99699.50;5113700;28;20048;-63
2022/08/05 01:43:28;;;;;;;8.20;4.55;;;;;;;22.48;56.11;99702.34;5112447;28;20047;-64
2022/08/05 01:45:56;;;;;;;6.22;4.47;;;;;;;22.44;56.34;99695.63;5112369;28;20043;-64
2022/08/05 01:48:30;;;;;;;25.83;5.07;;;;;;;22.39;56.89;99698.78;5113709;27;20323;-65
2022/08/05 01:50:57;;;;;;;9.13;5.20;;;;;;;22.40;56.34;99705.00;5112166;28;20093;-65
2022/08/05 01:53:38;;;;;;;9.90;4.82;;;;;;;22.38;56.26;99705.19;5113652;28;20514;-65
2022/08/05 01:56:28;;;;;;;7.90;4.75;;;;;;;22.35;56.67;99718.09;5113485;28;20052;-62
2022/08/05 01:59:19;;;;;;;7.72;4.47;;;;;;;22.33;56.72;99714.72;5112574;28;20453;-62
2022/08/05 02:01:48;;;;;;;7.72;5.03;;;;;;;22.32;56.52;99713.03;5112342;28;20063;-62
2022/08/05 02:04:18;;;;;;;6.53;4.18;;;;;;;22.29;56.55;99713.38;5112217;28;20101;-62
2022/08/05 02:06:46;;;;;;;6.13;4.57;;;;;;;22.28;56.28;99701.81;5111897;28;20048;-62
2022/08/05 02:09:13;;;;;;;7.38;4.50;;;;;;;22.25;56.50;99708.31;5112840;28;20521;-62
2022/08/05 02:11:57;;;;;;;7.70;4.35;;;;;;;22.18;57.04;99717.19;5112894;28;20043;-63
2022/08/05 02:14:30;;;;;;;6.20;3.90;;;;;;;22.19;57.08;99719.72;5113119;28;20137;-64
2022/08/05 02:17:10;;;;;;;9.27;5.03;;;;;;;22.16;57.49;99719.22;5113118;28;20079;-65
2022/08/05 02:20:00;;;;;;;7.80;5.00;;;;;;;22.16;57.08;99720.03;5112718;28;20092;-63
2022/08/05 02:22:31;;;;;;;7.68;4.32;;;;;;;22.15;56.99;99718.38;5112947;28;20043;-62
2022/08/05 02:25:11;;;;;;;6.60;3.90;;;;;;;22.11;57.74;99719.69;5113081;28;20066;-62
2022/08/05 02:27:40;;;;;;;11.07;4.68;;;;;;;22.12;57.07;99718.69;5111624;28;20048;-64
2022/08/05 02:30:44;;;;;;;7.85;4.40;;;;;;;22.08;57.82;99720.03;5111710;28;20058;-62
2022/08/05 02:33:21;;;;;;;7.90;4.90;;;;;;;22.10;56.91;99726.06;5111780;28;20054;-65
2022/08/05 02:36:02;;;;;;;6.72;4.28;;;;;;;22.07;57.06;99721.03;5096762;28;20388;-63
2022/08/05 02:38:29;;;;;;;6.32;4.35;;;;;;;22.07;56.92;99724.56;5111441;28;20457;-62
2022/08/05 02:41:02;;;;;;;5.85;4.10;;;;;;;22.06;57.01;99716.69;5112904;28;20429;-64
2022/08/05 02:43:44;;;;;;;6.47;4.03;;;;;;;22.06;57.08;99716.69;5111598;28;20052;-62
2022/08/05 02:46:32;;;;;;;7.85;4.28;;;;;;;22.04;56.67;99714.16;5111569;28;20112;-63
2022/08/05 02:49:00;;;;;;;6.90;4.57;;;;;;;22.03;56.85;99720.53;5112341;28;20058;-62
2022/08/05 02:51:29;;;;;;;8.15;5.05;;;;;;;22.00;56.75;99726.22;5112269;28;20423;-62
2022/08/05 02:54:16;;;;;;;9.15;4.28;;;;;;;21.96;56.77;99733.75;5112304;28;20092;-61
2022/08/05 02:57:01;;;;;;;8.00;4.57;;;;;;;21.93;56.90;99725.16;5111189;28;20453;-62
2022/08/05 02:59:31;;;;;;;8.32;4.30;;;;;;;21.89;57.10;99713.94;5112001;28;20686;-62
2022/08/05 03:02:16;;;;;;;7.97;4.45;;;;;;;21.86;57.35;99715.13;5111197;28;20051;-62
2022/08/05 03:04:43;;;;;;;6.55;4.45;;;;;;;21.85;57.22;99720.63;5110852;28;20055;-63
2022/08/05 03:07:11;;;;;;;8.85;4.25;;;;;;;21.83;57.41;99736.06;5112007;28;20055;-61
2022/08/05 03:09:58;;;;;;;6.25;4.03;;;;;;;21.81;57.45;99733.53;5110661;28;20050;-62
2022/08/05 03:12:28;;;;;;;8.80;4.18;;;;;;;21.79;58.01;99735.50;5111881;28;20044;-65
2022/08/05 03:14:56;;;;;;;7.10;4.38;;;;;;;21.79;57.61;99735.50;5111942;28;20054;-62
2022/08/05 03:17:23;;;;;;;8.32;4.43;;;;;;;21.78;57.46;99739.19;5110687;28;20059;-64
2022/08/05 03:19:50;;;;;;;6.35;4.35;;;;;;;21.77;57.40;99734.00;5111187;28;20135;-63
2022/08/05 03:22:17;;;;;;;8.68;4.43;;;;;;;21.78;57.68;99730.31;5112048;27;20047;-61
2022/08/05 03:24:58;;;;;;;8.27;4.68;;;;;;;21.77;57.60;99725.97;5111049;28;20122;-63
2022/08/05 03:27:45;;;;;;;6.13;4.03;;;;;;;21.77;57.56;99721.47;5111881;28;20762;-62
2022/08/05 03:30:27;;;;;;;9.15;4.40;;;;;;;21.76;57.94;99722.47;5111453;28;20079;-61
2022/08/05 03:33:04;;;;;;;7.68;4.38;;;;;;;21.74;58.43;99727.13;5110653;28;20191;-62
2022/08/05 03:35:32;;;;;;;9.15;5.15;;;;;;;21.76;57.95;99727.81;5110470;28;20048;-63
2022/08/05 03:38:09;;;;;;;8.13;4.80;;;;;;;21.74;57.83;99725.28;5110310;28;20134;-61
2022/08/05 03:40:41;;;;;;;8.30;5.25;;;;;;;21.74;58.48;99722.63;5110279;28;20047;-62
2022/08/05 03:43:13;;;;;;;11.95;5.32;;;;;;;21.74;57.98;99717.25;5111860;28;20070;-62
2022/08/05 03:46:00;;;;;;;6.72;5.70;;;;;;;21.74;58.03;99725.28;5111733;28;20104;-63
2022/08/05 03:48:29;;;;;;;9.00;5.57;;;;;;;21.73;58.32;99731.66;5111376;28;20048;-61
2022/08/05 03:51:23;;;;;;;14.07;5.88;;;;;;;21.68;58.65;99730.44;5110220;28;20069;-63
2022/08/05 03:54:29;;;;;;;13.60;6.13;;;;;;;21.65;58.72;99731.59;5112042;28;20813;-62
2022/08/05 03:57:20;;;;;;;7.00;5.45;;;;;;;21.66;58.46;99737.78;5111421;28;20865;-64
2022/08/05 03:59:59;;;;;;;8.02;5.68;;;;;;;21.64;58.42;99729.91;5111434;28;20418;-62
2022/08/05 04:02:29;;;;;;;8.18;5.25;;;;;;;21.60;58.79;99710.63;5110433;28;20047;-61
2022/08/05 04:05:07;;;;;;;7.07;6.00;;;;;;;21.60;58.72;99710.63;5110300;28;20047;-63
2022/08/05 04:07:38;;;;;;;9.25;6.13;;;;;;;21.59;58.70;99697.41;5110140;28;20135;-61
2022/08/05 04:10:24;;;;;;;11.90;6.22;;;;;;;21.59;58.52;99689.38;5111063;28;20468;-62
2022/08/05 04:12:54;;;;;;;9.98;6.97;;;;;;;21.57;58.63;99675.31;5110238;28;20058;-62
2022/08/05 04:15:24;;;;;;;11.55;7.50;;;;;;;21.56;58.85;99660.22;5109969;28;20522;-63
2022/08/05 04:17:54;;;;;;;11.80;6.97;;;;;;;21.53;58.84;99664.06;5109956;28;20051;-62
2022/08/05 04:20:25;;;;;;;12.48;7.45;;;;;;;21.53;58.71;99673.97;5109708;28;20058;-65
2022/08/05 04:22:52;;;;;;;11.48;6.22;;;;;;;21.51;58.76;99660.72;5111165;28;20054;-63
2022/08/05 04:25:18;;;;;;;7.57;5.82;;;;;;;21.48;59.01;99648.50;5111429;28;20051;-63
2022/08/05 04:28:04;;;;;;;9.45;5.97;;;;;;;21.46;58.89;99645.13;5110100;28;20055;-62
2022/08/05 04:30:38;;;;;;;11.02;5.80;;;;;;;21.42;58.96;99677.75;5111072;28;20135;-62
2022/08/05 04:33:05;;;;;;;8.52;6.10;;;;;;;21.38;59.38;99704.00;5115010;28;20411;-62
2022/08/05 04:35:33;;;;;;;10.70;6.18;;;;;;;21.38;59.58;99698.63;5115032;28;20051;-63
2022/08/05 04:38:19;;;;;;;7.20;5.60;;;;;;;21.39;59.68;99678.06;5114708;28;20483;-62
2022/08/05 04:40:46;;;;;;;8.15;5.53;;;;;;;21.39;59.75;99686.09;5115003;28;20044;-62
2022/08/05 04:43:16;;;;;;;11.10;5.90;;;;;;;21.39;59.53;99711.06;5114811;28;20048;-62
2022/08/05 04:45:47;;;;;;;8.23;5.68;;;;;;;21.41;59.82;99716.25;5115141;28;20059;-61
2022/08/05 04:48:21;;;;;;;10.70;5.93;;;;;;;21.42;59.92;99715.25;5114627;28;20054;-61
2022/08/05 04:50:54;;;;;;;9.10;5.43;;;;;;;21.44;59.99;99718.59;5114206;28;20062;-62
2022/08/05 04:53:37;;;;;;;;;;;;;;;21.43;59.05;99717.78;5114776;28;20044;-62
2022/08/05 04:56:08;;;;;;;10.50;5.78;;;;;;;21.51;59.35;99716.09;5114627;28;19929;-62
2022/08/05 04:58:55;;;;;;;8.27;6.07;;;;;;;21.51;59.61;99716.09;5114797;28;20093;-63
2022/08/05 05:01:22;;;;;;;9.95;5.97;;;;;;;21.51;59.75;99710.75;5113394;28;20052;-62
2022/08/05 05:04:08;;;;;;;7.05;6.20;;;;;;;21.51;59.67;99714.28;5113700;28;20044;-62
2022/08/05 05:06:35;;;;;;;10.52;6.10;;;;;;;21.51;59.77;99722.31;5114423;28;20571;-65
2022/08/05 05:09:13;;;;;;;8.45;5.95;;;;;;;21.50;60.19;99711.75;5114195;28;20044;-63
2022/08/05 05:11:44;;;;;;;7.03;5.57;;;;;;;21.49;59.59;99705.56;5114284;28;20083;-63
2022/08/05 05:14:23;;;;;;;7.47;5.38;;;;;;;21.48;59.51;99707.41;5113583;28;20487;-64
2022/08/05 05:16:58;;;;;;;6.07;4.97;;;;;;;21.46;59.57;99709.41;5112589;28;20047;-64
2022/08/05 05:19:24;;;;;;;7.72;5.03;;;;;;;21.45;59.66;99709.56;5111156;28;20048;-64
2022/08/05 05:22:02;;;;;;;8.10;4.82;;;;;;;21.44;59.86;99711.41;5111527;28;20131;-62
2022/08/05 05:24:48;;;;;;;8.07;4.75;;;;;;;21.43;59.57;99707.06;5112322;28;20066;-64
2022/08/05 05:27:30;;;;;;;7.80;4.85;;;;;;;21.40;59.61;99710.03;5112419;28;20043;-63
2022/08/05 05:30:15;;;;;;;6.15;4.20;;;;;;;21.40;59.41;99733.28;5112772;27;20502;-61
2022/08/05 05:33:01;;;;;;;6.82;4.32;;;;;;;21.41;59.27;99737.69;5112922;28;20051;-61
2022/08/05 05:35:39;;;;;;;6.78;4.43;;;;;;;21.41;59.30;99738.50;5114174;28;20047;-61
2022/08/05 05:38:08;;;;;;;7.30;4.32;;;;;;;21.42;59.49;99731.31;5113886;28;20047;-64
2022/08/05 05:40:41;;;;;;;6.50;4.25;;;;;;;21.43;59.62;99731.16;5113705;28;20047;-61
2022/08/05 05:43:18;;;;;;;7.50;4.70;;;;;;;21.45;59.66;99731.81;5112928;28;20055;-62
2022/08/05 05:46:05;;;;;;;8.48;4.53;;;;;;;21.46;59.48;99738.84;5112085;28;20059;-62
2022/08/05 05:48:40;;;;;;;6.28;4.35;;;;;;;21.49;59.54;99751.06;5113453;27;20051;-63
2022/08/05 05:51:09;;;;;;;7.70;4.50;;;;;;;21.48;59.84;99765.47;5112405;28;20059;-64
2022/08/05 05:53:42;;;;;;;8.15;5.05;;;;;;;21.47;59.94;99764.66;5112469;28;20105;-64
2022/08/05 05:56:28;;;;;;;6.90;5.22;;;;;;;21.45;60.36;99760.44;5112385;28;20112;-62
2022/08/05 05:59:03;;;;;;;10.90;5.78;;;;;;;21.45;60.37;99755.06;5113144;28;20134;-61
2022/08/05 06:01:37;;;;;;;11.23;5.22;;;;;;;21.44;60.14;99748.03;5095724;28;20598;-63
2022/08/05 06:04:07;;;;;;;10.13;5.10;;;;;;;21.45;60.23;99761.28;5113367;28;20043;-61
2022/08/05 06:06:41;;;;;;;10.87;5.27;;;;;;;21.46;60.18;99756.78;5113326;28;20131;-63
2022/08/05 06:09:14;;;;;;;8.38;5.05;;;;;;;21.47;60.28;99764.66;5113122;28;20290;-62
2022/08/05 06:11:44;;;;;;;7.43;5.13;;;;;;;21.48;60.24;99768.16;5112983;28;20055;-62
2022/08/05 06:14:32;;;;;;;10.27;5.80;;;;;;;21.46;60.85;99765.63;5112985;28;20570;-63
2022/08/05 06:17:01;;;;;;;5.67;5.07;;;;;;;21.48;60.28;99768.16;5112816;28;20050;-62
2022/08/05 06:19:47;;;;;;;8.82;5.50;;;;;;;21.48;60.24;99777.03;5111850;28;20052;-62
2022/08/05 06:22:29;;;;;;;8.63;6.18;;;;;;;21.45;60.66;99787.22;5111687;28;20059;-62
2022/08/05 06:24:59;;;;;;;8.25;6.28;;;;;;;21.46;60.30;99788.91;5111535;28;20423;-63
2022/08/05 06:27:46;;;;;;;11.15;6.13;;;;;;;21.45;60.31;99779.16;5111453;28;20044;-61
2022/08/05 06:30:33;;;;;;;7.90;5.63;;;;;;;21.43;60.47;99765.13;5112923;28;20055;-64
2022/08/05 06:33:00;;;;;;;8.70;4.90;;;;;;;21.41;60.53;99775.97;5112592;28;20146;-62
2022/08/05 06:35:26;;;;;;;10.32;5.88;;;;;;;21.41;60.82;99794.72;5112812;28;20054;-62
2022/08/05 06:38:13;;;;;;;8.40;6.05;;;;;;;21.43;60.57;99795.41;5112508;28;20067;-64
2022/08/05 06:40:41;;;;;;;11.07;6.38;;;;;;;21.43;60.87;99794.56;5112784;28;20055;-64
2022/08/05 06:43:11;;;;;;;10.73;6.40;;;;;;;21.42;60.89;99792.91;5112763;28;20043;-62
2022/08/05 06:45:58;;;;;;;10.43;6.22;;;;;;;21.44;60.73;99804.28;5111813;28;20043;-63
2022/08/05 06:48:33;;;;;;;6.70;5.45;;;;;;;21.42;60.58;99814.31;5112481;28;20543;-62
2022/08/05 06:51:20;;;;;;;8.35;5.78;;;;;;;21.41;60.80;99805.44;5111337;28;20047;-63
2022/08/05 06:53:58;;;;;;;8.73;6.00;;;;;;;21.41;60.90;99808.13;5110583;28;20059;-62
2022/08/05 06:56:26;;;;;;;8.27;6.22;;;;;;;21.42;61.20;99798.25;5112307;28;20058;-62
2022/08/05 06:58:53;;;;;;;10.65;5.10;;;;;;;21.43;61.24;99794.56;5110810;28;20055;-62
2022/08/05 07:01:20;;;;;;;5.80;4.65;;;;;;;21.46;61.22;99803.13;5111302;28;20054;-64
2022/08/05 07:03:48;;;;;;;6.50;5.25;;;;;;;21.50;61.38;99806.34;5112233;28;20410;-62
2022/08/05 07:06:16;;;;;;;7.43;5.40;;;;;;;21.52;61.26;99798.16;5112360;28;20052;-62
2022/08/05 07:08:46;;;;;;;7.07;5.18;;;;;;;21.55;61.24;99798.66;5111954;28;20051;-66
2022/08/05 07:11:20;;;;;;;7.53;5.03;;;;;;;21.58;61.24;99797.50;5111875;28;20143;-62
2022/08/05 07:16:50;;;;;;;6.30;4.60;;;;;;;21.66;61.09;99791.34;5112040;28;20760;-61
2022/08/05 07:19:37;;;;;;;6.57;4.22;;;;;;;21.69;60.94;99794.56;5110738;28;20403;-62
2022/08/05 07:22:23;;;;;;;8.30;4.60;;;;;;;21.73;60.87;99789.75;5111703;28;20108;-62
2022/08/05 07:24:59;;;;;;;6.78;4.95;;;;;;;21.74;60.88;99803.00;5111994;28;20059;-62
2022/08/05 07:27:50;;;;;;;6.07;4.45;;;;;;;21.78;60.46;99790.09;5111731;28;20546;-64
2022/08/05 07:30:25;;;;;;;5.60;4.03;;;;;;;21.81;60.40;99797.84;5110717;28;20082;-62
2022/08/05 07:32:58;;;;;;;;;;;;;;;21.81;60.02;99794.31;5111982;28;20075;-62
2022/08/05 07:35:25;;;;;;;4.50;3.38;;;;;;;21.89;59.61;99804.22;5111957;28;19927;-63
2022/08/05 07:38:15;;;;;;;6.38;3.15;;;;;;;21.87;59.63;99807.06;5111368;28;20044;-62
2022/08/05 07:41:03;;;;;;;7.43;3.22;;;;;;;21.84;59.48;99807.38;5111894;28;20051;-63
2022/08/05 07:43:51;;;;;;;4.72;2.90;;;;;;;21.82;59.35;99815.56;5110987;28;20117;-62
2022/08/05 07:46:21;;;;;;;5.75;3.53;;;;;;;21.77;59.45;99823.25;5110502;28;20130;-62
2022/08/05 07:48:50;;;;;;;5.60;3.08;;;;;;;21.72;59.39;99820.19;5111542;28;20048;-62
2022/08/05 07:51:34;;;;;;;2.75;2.55;;;;;;;21.68;59.73;99818.81;5111699;28;20047;-62
2022/08/05 07:54:06;;;;;;;4.50;2.40;;;;;;;21.66;59.52;99818.13;5110557;28;20138;-61
2022/08/05 07:56:35;;;;;;;4.18;2.40;;;;;;;21.63;59.51;99816.63;5111552;28;20059;-64
2022/08/05 07:59:21;;;;;;;5.28;2.78;;;;;;;21.63;59.67;99827.31;5111209;28;20043;-61
2022/08/05 08:02:06;;;;;;;3.97;2.85;;;;;;;21.63;59.75;99831.88;5111451;28;20506;-63
2022/08/05 08:04:46;;;;;;;6.07;3.38;;;;;;;21.61;60.11;99829.34;5110625;28;20093;-61
2022/08/05 08:07:17;;;;;;;5.63;3.78;;;;;;;21.62;59.66;99836.38;5115705;28;20097;-61
2022/08/05 08:09:49;;;;;;;4.32;3.28;;;;;;;21.61;59.75;99842.72;5115384;28;20475;-62
2022/08/05 08:12:18;;;;;;;5.00;3.53;;;;;;;21.59;59.57;99850.91;5114301;28;20112;-61
2022/08/05 08:15:06;;;;;;;4.38;3.05;;;;;;;21.56;59.41;99853.06;5114273;28;20122;-63
2022/08/05 08:17:42;;;;;;;4.03;2.78;;;;;;;21.53;59.76;99850.72;5115389;28;20051;-62
2022/08/05 08:20:16;;;;;;;4.88;2.97;;;;;;;21.50;59.90;99837.63;5115100;28;20120;-63
2022/08/05 08:23:03;;;;;;;5.85;2.72;;;;;;;21.47;59.76;99833.44;5115078;28;20055;-62
2022/08/05 08:25:30;;;;;;;4.65;3.08;;;;;;;21.44;60.20;99834.59;5115148;27;20044;-64
2022/08/05 08:28:16;;;;;;;5.50;3.28;;;;;;;21.43;59.96;99846.31;5114939;28;20093;-62
2022/08/05 08:31:03;;;;;;;3.75;2.67;;;;;;;21.43;60.35;99848.13;5115269;28;20586;-61
2022/08/05 08:33:30;;;;;;;4.47;3.05;;;;;;;21.41;60.39;99856.31;5113938;28;20134;-63
2022/08/05 08:36:06;;;;;;;4.78;2.72;;;;;;;21.40;59.96;99853.78;5115184;28;20462;-62
2022/08/05 08:38:54;;;;;;;5.70;2.97;;;;;;;21.41;60.11;99866.19;5113614;28;20043;-62
2022/08/05 08:41:25;;;;;;;3.83;2.65;;;;;;;21.38;60.33;99850.44;5113776;28;20529;-62
2022/08/05 08:44:13;;;;;;;6.57;2.80;;;;;;;21.37;60.28;99849.59;5113833;28;20048;-63
2022/08/05 08:47:02;;;;;;;6.18;2.88;;;;;;;21.34;60.69;99866.81;5115088;28;20051;-64
2022/08/05 08:49:50;;;;;;;3.00;2.70;;;;;;;21.34;60.37;99882.00;5113764;28;20074;-62
2022/08/05 08:52:37;;;;;;;7.30;3.13;;;;;;;21.33;60.31;99881.19;5114959;28;20380;-64
2022/08/05 08:55:06;;;;;;;5.40;3.30;;;;;;;21.32;60.27;99878.66;5113458;28;20086;-61
2022/08/05 08:57:39;;;;;;;4.07;3.08;;;;;;;21.29;60.25;99870.94;5113537;28;20056;-62
2022/08/05 09:00:23;;;;;;;5.68;3.50;;;;;;;21.26;60.33;99860.56;5114472;28;20048;-62
2022/08/05 09:02:53;;;;;;;4.82;2.90;;;;;;;21.24;60.65;99870.56;5114658;28;20048;-61
2022/08/05 09:05:20;;;;;;;3.20;2.53;;;;;;;21.22;60.79;99881.41;5114533;28;20047;-62
2022/08/05 09:08:07;;;;;;;4.20;2.92;;;;;;;21.24;60.98;99891.97;5114213;28;20047;-65
2022/08/05 09:10:35;;;;;;;4.07;3.38;;;;;;;21.25;60.52;99899.00;5114341;28;20055;-62
2022/08/05 09:13:05;;;;;;;3.95;3.00;;;;;;;21.26;60.52;99911.44;5114144;28;20043;-62
2022/08/05 09:15:33;;;;;;;3.35;2.50;;;;;;;21.25;60.68;99910.56;5114161;28;20548;-62
2022/08/05 09:18:06;;;;;;;5.45;3.60;;;;;;;21.24;60.28;99905.38;5112222;28;20127;-63
2022/08/05 09:20:35;;;;;;;4.30;3.90;;;;;;;21.24;60.64;99902.69;5114480;28;20116;-62
2022/08/05 09:23:16;;;;;;;7.88;3.20;;;;;;;21.21;60.91;99899.34;5114219;28;20043;-62
2022/08/05 09:25:49;;;;;;;4.05;2.78;;;;;;;21.24;60.84;99887.47;5114168;28;20051;-63
2022/08/05 09:28:32;;;;;;;4.07;3.05;;;;;;;21.27;60.60;99889.00;5113849;28;20512;-64
2022/08/05 09:31:09;;;;;;;8.05;3.22;;;;;;;21.27;61.19;99897.03;5113807;28;20055;-61
2022/08/05 09:34:05;;;;;;;5.22;4.13;;;;;;;21.30;61.58;99891.38;5113937;28;20052;-64
2022/08/05 09:36:44;;;;;;;7.15;5.03;;;;;;;21.35;61.95;99889.06;5112830;28;20100;-61
2022/08/05 09:39:25;;;;;;;6.28;5.65;;;;;;;21.43;61.39;99883.78;5112700;28;20040;-62
2022/08/05 09:42:07;;;;;;;8.68;7.30;;;;;;;21.52;61.16;99884.69;5112900;28;20051;-61
2022/08/05 09:44:44;;;;;;;4.85;4.32;;;;;;;21.61;61.28;99893.63;5113861;28;20483;-61
2022/08/05 09:47:25;;;;;;;6.47;3.63;;;;;;;21.67;61.62;99881.41;5113792;28;20055;-62
2022/08/05 09:50:12;;;;;;;4.20;2.47;;;;;;;21.80;60.89;99886.41;5112277;28;20062;-64
2022/08/05 09:52:59;;;;;;;4.45;2.30;;;;;;;21.89;61.02;99906.03;5113511;28;20047;-61
2022/08/05 09:55:26;;;;;;;4.38;2.80;;;;;;;21.96;60.48;99920.50;5113446;28;20059;-62
2022/08/05 09:58:14;;;;;;;3.72;2.40;;;;;;;22.02;60.43;99930.59;5113319;28;20487;-62
2022/08/05 10:00:53;;;;;;;3.00;2.30;;;;;;;22.03;60.40;99929.59;5112233;28;20083;-62
2022/08/05 10:03:20;;;;;;;3.90;3.55;;;;;;;22.09;59.61;99930.81;5113532;28;20169;-62
2022/08/05 10:06:00;;;;;;;6.72;3.80;;;;;;;22.06;59.93;99931.13;5113463;28;20051;-62
2022/08/05 10:08:34;;;;;;;4.53;3.90;;;;;;;22.11;59.99;99931.47;5113710;28;20046;-62
2022/08/05 10:11:15;;;;;;;5.20;4.35;;;;;;;22.08;60.80;99923.75;5112144;28;20044;-62
2022/08/05 10:13:42;;;;;;;6.75;4.40;;;;;;;22.16;60.98;99934.50;5111880;28;20051;-65
2022/08/05 10:16:32;;;;;;;5.07;4.05;;;;;;;22.17;60.41;99935.38;5113092;28;20043;-63
2022/08/05 10:19:08;;;;;;;3.85;2.72;;;;;;;22.26;60.19;99945.13;5113179;28;20055;-62
2022/08/05 10:21:37;;;;;;;5.30;2.42;;;;;;;22.30;59.78;99951.00;5113329;28;20082;-62
2022/08/05 10:24:12;;;;;;;2.95;2.55;;;;;;;22.31;60.04;99955.38;5111753;28;20039;-64
2022/08/05 10:26:44;;;;;;;3.03;2.17;;;;;;;22.36;60.19;99958.44;5112099;28;20555;-62
2022/08/05 10:29:20;;;;;;;2.60;1.98;;;;;;;22.41;59.68;99960.59;5111591;28;20473;-62
2022/08/05 10:32:07;;;;;;;2.50;1.63;;;;;;;22.48;59.56;99973.25;5097635;28;20047;-62
2022/08/05 10:34:57;;;;;;;1.80;1.50;;;;;;;22.55;59.06;99980.66;5112995;28;20047;-62
2022/08/05 10:37:29;;;;;;;2.45;1.48;;;;;;;22.60;58.89;99984.56;5112481;28;20062;-64
2022/08/05 10:40:33;;;;;;;2.22;1.60;;;;;;;22.64;58.95;99979.69;5111576;28;20090;-63
2022/08/05 10:43:29;;;;;;;2.65;1.60;;;;;;;22.77;59.11;99985.44;5093611;28;20050;-62
2022/08/05 10:46:07;;;;;;;3.15;1.88;;;;;;;22.92;59.30;99976.78;5112680;28;20051;-62
2022/08/05 10:48:45;;;;;;;2.30;1.67;;;;;;;23.07;58.57;99978.84;5112336;28;20051;-62
2022/08/05 10:51:24;;;;;;;1.65;1.27;;;;;;;23.27;59.40;99985.59;5112333;28;20059;-61
2022/08/05 10:53:55;;;;;;;1.85;1.00;;;;;;;23.46;58.94;99993.53;5111978;28;20044;-62
2022/08/05 10:56:42;;;;;;;2.65;0.98;;;;;;;23.65;57.38;100001.28;5112284;28;20475;-68
2022/08/05 10:59:10;;;;;;;1.00;0.90;;;;;;;23.88;57.57;100000.59;5112276;28;20056;-61
2022/08/05 11:02:11;;;;;;;1.92;1.10;;;;;;;24.01;56.10;100018.06;5112645;28;20059;-65
2022/08/05 11:04:58;;;;;;;2.20;1.20;;;;;;;24.19;55.87;100012.53;5112060;28;20521;-63
2022/08/05 11:07:25;;;;;;;1.05;0.98;;;;;;;24.27;56.00;100006.28;5110994;28;20491;-63
2022/08/05 11:10:24;;;;;;;1.45;0.93;;;;;;;24.36;56.03;100010.63;5111723;27;20051;-62
2022/08/05 11:12:56;;;;;;;1.53;1.20;;;;;;;24.56;56.61;100019.16;5110713;28;20574;-62
2022/08/05 11:15:27;;;;;;;1.27;1.10;;;;;;;24.72;55.64;100014.72;5112166;28;20297;-63
2022/08/05 11:18:29;;;;;;;2.00;1.13;;;;;;;24.89;54.74;100012.00;5111785;28;20073;-63
2022/08/05 11:21:01;;;;;;;1.95;1.48;;;;;;;25.03;54.38;100008.56;5111927;28;20052;-67
2022/08/05 11:23:50;;;;;;;1.65;1.27;;;;;;;25.09;52.74;100012.41;5110951;28;20048;-63
2022/08/05 11:26:36;;;;;;;2.45;1.45;;;;;;;25.17;53.18;100016.91;5111533;28;20047;-62
2022/08/05 11:29:06;;;;;;;2.63;1.98;;;;;;;25.17;53.08;100020.44;5111517;28;20483;-64
2022/08/05 11:31:41;;;;;;;2.67;1.70;;;;;;;25.19;53.21;100015.69;5111820;28;20051;-61
2022/08/05 11:34:37;;;;;;;3.80;1.85;;;;;;;25.18;53.40;100019.41;5111962;28;20096;-62
2022/08/05 11:37:04;;;;;;;3.17;2.05;;;;;;;25.29;54.28;100026.25;5112186;28;20044;-63
2022/08/05 11:39:51;;;;;;;2.40;2.20;;;;;;;25.42;54.03;100019.44;5111088;28;20044;-62
2022/08/05 11:42:32;;;;;;;3.05;2.28;;;;;;;25.56;52.61;100029.47;5111517;28;20043;-63
2022/08/05 11:45:07;;;;;;;3.70;2.08;;;;;;;25.72;53.34;100020.41;5110880;28;20530;-62
2022/08/05 11:47:53;;;;;;;4.15;2.30;;;;;;;25.99;53.93;100017.34;5110975;28;20120;-62
2022/08/05 11:50:21;;;;;;;2.72;2.00;;;;;;;26.31;54.12;100023.44;5110597;28;20094;-64
2022/08/05 11:52:49;;;;;;;4.10;2.70;;;;;;;26.68;54.43;100015.44;5111083;28;20039;-62
2022/08/05 11:55:23;;;;;;;7.05;2.55;;;;;;;27.10;52.52;100025.75;5109920;28;20502;-63
2022/08/05 11:58:01;;;;;;;3.33;2.15;;;;;;;27.43;51.53;100017.16;5111605;28;20051;-62
2022/08/05 12:00:40;;;;;;;2.72;2.13;;;;;;;27.67;50.07;100026.78;5111150;28;20419;-62
2022/08/05 12:03:21;;;;;;;3.47;2.10;;;;;;;27.91;50.35;100023.84;5111783;28;20044;-61
2022/08/05 12:06:03;;;;;;;5.93;2.65;;;;;;;28.15;49.75;100019.03;5111618;28;20056;-62
2022/08/05 12:09:03;;;;;;;3.33;1.88;;;;;;;28.42;49.12;100035.50;5111147;28;20040;-63
2022/08/05 12:11:30;;;;;;;2.55;1.67;;;;;;;28.60;47.68;100032.28;5110445;28;20059;-63
2022/08/05 12:14:11;;;;;;;3.03;1.90;;;;;;;28.58;46.10;100035.16;5110839;28;20044;-64
2022/08/05 12:16:41;;;;;;;3.13;1.80;;;;;;;28.44;45.96;100030.72;5110322;28;20055;-63
2022/08/05 12:19:10;;;;;;;3.67;1.80;;;;;;;28.20;45.04;100033.66;5109697;28;20054;-63
2022/08/05 12:22:00;;;;;;;3.70;1.83;;;;;;;27.87;44.54;100038.78;5110755;28;20579;-63